sensor_id;sensor_type;location;lat;lon;timestamp;pressure;altitude;pressure_sealevel;temperature;humidity
64362;BME280;50685;53.346;-6.296;2023-04-06T00:01:59;101209.41;;;10.35;72.53
64362;BME280;50685;53.346;-6.296;2023-04-06T00:04:28;101204.13;;;10.27;72.71
64362;BME280;50685;53.346;-6.296;2023-04-06T00:06:53;101253.56;;;10.47;72.68
64362;BME280;50685;53.346;-6.296;2023-04-06T00:09:21;101248.25;;;10.35;72.23
64362;BME280;50685;53.346;-6.296;2023-04-06T00:11:50;101186.59;;;9.99;72.97
64362;BME280;50685;53.346;-6.296;2023-04-06T00:14:15;101228.03;;;10.15;73.41
64362;BME280;50685;53.346;-6.296;2023-04-06T00:16:42;101206.00;;;9.97;73.69
64362;BME280;50685;53.346;-6.296;2023-04-06T00:19:08;101186.69;;;9.72;73.90
64362;BME280;50685;53.346;-6.296;2023-04-06T00:21:36;101184.03;;;9.72;73.90
64362;BME280;50685;53.346;-6.296;2023-04-06T00:24:07;101171.72;;;9.54;73.97
64362;BME280;50685;53.346;-6.296;2023-04-06T00:26:35;101227.28;;;9.82;74.32
64362;BME280;50685;53.346;-6.296;2023-04-06T00:29:03;101190.25;;;9.59;74.41
64362;BME280;50685;53.346;-6.296;2023-04-06T00:31:28;101181.44;;;9.57;74.46
64362;BME280;50685;53.346;-6.296;2023-04-06T00:33:54;101173.47;;;9.57;74.26
64362;BME280;50685;53.346;-6.296;2023-04-06T00:36:22;101147.88;;;9.51;74.18
64362;BME280;50685;53.346;-6.296;2023-04-06T00:38:48;101140.88;;;9.44;74.08
64362;BME280;50685;53.346;-6.296;2023-04-06T00:41:13;101209.63;;;9.78;74.20
64362;BME280;50685;53.346;-6.296;2023-04-06T00:43:39;101166.44;;;9.45;74.27
64362;BME280;50685;53.346;-6.296;2023-04-06T00:46:05;101179.66;;;9.51;74.29
64362;BME280;50685;53.346;-6.296;2023-04-06T00:48:40;101179.66;;;9.49;74.47
64362;BME280;50685;53.346;-6.296;2023-04-06T00:51:06;101227.28;;;9.68;74.41
64362;BME280;50685;53.346;-6.296;2023-04-06T00:53:34;101219.34;;;9.63;74.63
64362;BME280;50685;53.346;-6.296;2023-04-06T00:56:00;101192.06;;;9.43;74.81
64362;BME280;50685;53.346;-6.296;2023-04-06T00:58:28;101229.09;;;9.60;75.02
64362;BME280;50685;53.346;-6.296;2023-04-06T01:00:57;101210.56;;;9.60;75.07
64362;BME280;50685;53.346;-6.296;2023-04-06T01:03:23;101193.81;;;9.44;75.24
64362;BME280;50685;53.346;-6.296;2023-04-06T01:05:49;101230.88;;;9.56;75.32
64362;BME280;50685;53.346;-6.296;2023-04-06T01:08:17;101196.47;;;9.24;75.34
64362;BME280;50685;53.346;-6.296;2023-04-06T01:10:43;101231.75;;;9.41;75.50
64362;BME280;50685;53.346;-6.296;2023-04-06T01:13:11;101206.19;;;9.19;75.60
64362;BME280;50685;53.346;-6.296;2023-04-06T01:15:37;101228.22;;;9.38;75.46
64362;BME280;50685;53.346;-6.296;2023-04-06T01:18:18;101240.59;;;9.36;75.22
64362;BME280;50685;53.346;-6.296;2023-04-06T01:20:43;101233.53;;;9.35;75.25
64362;BME280;50685;53.346;-6.296;2023-04-06T01:23:09;101170.91;;;8.96;74.92
64362;BME280;50685;53.346;-6.296;2023-04-06T01:25:35;101229.13;;;9.37;74.91
64362;BME280;50685;53.346;-6.296;2023-04-06T01:28:00;101226.47;;;9.38;74.77
64362;BME280;50685;53.346;-6.296;2023-04-06T01:30:26;101229.13;;;9.37;74.92
64362;BME280;50685;53.346;-6.296;2023-04-06T01:32:52;101193.81;;;9.13;74.76
64362;BME280;50685;53.346;-6.296;2023-04-06T01:35:19;101218.53;;;9.20;75.12
64362;BME280;50685;53.346;-6.296;2023-04-06T01:37:45;101198.25;;;9.17;75.70
64362;BME280;50685;53.346;-6.296;2023-04-06T01:40:16;101215.88;;;9.35;75.74
64362;BME280;50685;53.346;-6.296;2023-04-06T01:42:42;101192.06;;;9.16;75.85
64362;BME280;50685;53.346;-6.296;2023-04-06T01:45:11;101164.75;;;8.93;76.13
64362;BME280;50685;53.346;-6.296;2023-04-06T01:47:36;101180.59;;;9.05;75.88
64362;BME280;50685;53.346;-6.296;2023-04-06T01:50:02;101206.19;;;9.29;75.98
64362;BME280;50685;53.346;-6.296;2023-04-06T01:52:34;101175.31;;;9.11;75.69
64362;BME280;50685;53.346;-6.296;2023-04-06T01:55:05;101177.06;;;9.03;75.98
64362;BME280;50685;53.346;-6.296;2023-04-06T01:57:33;101192.09;;;9.18;75.51
64362;BME280;50685;53.346;-6.296;2023-04-06T02:00:00;101162.97;;;9.06;75.66
64362;BME280;50685;53.346;-6.296;2023-04-06T02:02:31;101162.97;;;9.06;75.64
64362;BME280;50685;53.346;-6.296;2023-04-06T02:05:00;101209.69;;;9.31;76.00
64362;BME280;50685;53.346;-6.296;2023-04-06T02:07:26;101155.03;;;9.04;75.90
64362;BME280;50685;53.346;-6.296;2023-04-06T02:09:54;101210.56;;;9.35;76.33
64362;BME280;50685;53.346;-6.296;2023-04-06T02:12:23;101131.25;;;8.89;76.20
64362;BME280;50685;53.346;-6.296;2023-04-06T02:14:51;101207.06;;;9.35;76.69
64362;BME280;50685;53.346;-6.296;2023-04-06T02:17:19;101199.09;;;9.31;76.99
64362;BME280;50685;53.346;-6.296;2023-04-06T02:19:45;101206.19;;;9.26;77.38
64362;BME280;50685;53.346;-6.296;2023-04-06T02:22:11;101196.47;;;9.27;77.38
64362;BME280;50685;53.346;-6.296;2023-04-06T02:24:36;101197.38;;;9.26;77.58
64362;BME280;50685;53.346;-6.296;2023-04-06T02:27:02;101198.25;;;9.28;77.07
64362;BME280;50685;53.346;-6.296;2023-04-06T02:29:28;101200.88;;;9.25;77.26
64362;BME280;50685;53.346;-6.296;2023-04-06T02:31:53;101201.78;;;9.10;77.07
64362;BME280;50685;53.346;-6.296;2023-04-06T02:34:21;101206.19;;;9.14;77.06
64362;BME280;50685;53.346;-6.296;2023-04-06T02:36:56;101150.63;;;8.78;77.30
64362;BME280;50685;53.346;-6.296;2023-04-06T02:39:22;101202.69;;;9.12;76.93
64362;BME280;50685;53.346;-6.296;2023-04-06T02:41:48;101162.09;;;8.83;76.71
64362;BME280;50685;53.346;-6.296;2023-04-06T02:44:13;101206.19;;;9.03;77.09
64362;BME280;50685;53.346;-6.296;2023-04-06T02:46:39;101179.75;;;8.86;77.08
64362;BME280;50685;53.346;-6.296;2023-04-06T02:49:05;101186.78;;;8.87;77.13
64362;BME280;50685;53.346;-6.296;2023-04-06T02:51:37;101215.00;;;8.97;77.03
64362;BME280;50685;53.346;-6.296;2023-04-06T02:54:02;101177.94;;;8.70;77.01
64362;BME280;50685;53.346;-6.296;2023-04-06T02:56:34;101204.41;;;8.93;77.37
64362;BME280;50685;53.346;-6.296;2023-04-06T02:59:00;101216.75;;;8.89;77.24
64362;BME280;50685;53.346;-6.296;2023-04-06T03:01:26;101166.50;;;8.58;77.50
64362;BME280;50685;53.346;-6.296;2023-04-06T03:03:52;101148.84;;;8.49;77.46
64362;BME280;50685;53.346;-6.296;2023-04-06T03:06:23;101182.38;;;8.69;78.08
64362;BME280;50685;53.346;-6.296;2023-04-06T03:08:49;101154.13;;;8.51;77.68
64362;BME280;50685;53.346;-6.296;2023-04-06T03:11:15;101185.00;;;8.71;78.15
64362;BME280;50685;53.346;-6.296;2023-04-06T03:13:44;101205.31;;;8.89;78.31
64362;BME280;50685;53.346;-6.296;2023-04-06T03:16:15;101207.06;;;8.87;78.52
64362;BME280;50685;53.346;-6.296;2023-04-06T03:18:41;101207.06;;;8.87;78.36
64362;BME280;50685;53.346;-6.296;2023-04-06T03:21:09;101211.47;;;8.83;78.78
64362;BME280;50685;53.346;-6.296;2023-04-06T03:23:45;101214.13;;;8.83;78.76
64362;BME280;50685;53.346;-6.296;2023-04-06T03:26:20;101208.81;;;8.80;79.26
64362;BME280;50685;53.346;-6.296;2023-04-06T03:28:50;101213.22;;;8.81;79.04
64362;BME280;50685;53.346;-6.296;2023-04-06T03:31:15;101207.91;;;8.75;79.31
64362;BME280;50685;53.346;-6.296;2023-04-06T03:33:41;101207.03;;;8.71;79.47
64362;BME280;50685;53.346;-6.296;2023-04-06T03:36:07;101214.97;;;8.66;79.39
64362;BME280;50685;53.346;-6.296;2023-04-06T03:38:35;101209.69;;;8.71;79.30
64362;BME280;50685;53.346;-6.296;2023-04-06T03:41:03;101211.44;;;8.67;79.06
64362;BME280;50685;53.346;-6.296;2023-04-06T03:43:29;101207.06;;;8.66;79.30
64362;BME280;50685;53.346;-6.296;2023-04-06T03:46:00;101207.91;;;8.67;79.27
64362;BME280;50685;53.346;-6.296;2023-04-06T03:48:29;101131.13;;;8.20;79.39
64362;BME280;50685;53.346;-6.296;2023-04-06T03:50:55;101209.69;;;8.62;79.87
64362;BME280;50685;53.346;-6.296;2023-04-06T03:53:26;101207.91;;;8.61;80.15
64362;BME280;50685;53.346;-6.296;2023-04-06T03:55:52;101214.09;;;8.64;80.15
64362;BME280;50685;53.346;-6.296;2023-04-06T03:58:28;101212.31;;;8.62;80.37
64362;BME280;50685;53.346;-6.296;2023-04-06T04:01:01;101176.09;;;8.39;80.09
64362;BME280;50685;53.346;-6.296;2023-04-06T04:03:38;101213.19;;;8.56;80.19
64362;BME280;50685;53.346;-6.296;2023-04-06T04:09:12;101187.50;;;8.24;82.32
64362;BME280;50685;53.346;-6.296;2023-04-06T04:11:41;101222.81;;;8.39;83.75
64362;BME280;50685;53.346;-6.296;2023-04-06T04:14:27;101223.63;;;8.27;84.50
64362;BME280;50685;53.346;-6.296;2023-04-06T04:16:53;101172.44;;;7.98;84.84
64362;BME280;50685;53.346;-6.296;2023-04-06T04:19:25;101213.03;;;8.19;85.21
64362;BME280;50685;53.346;-6.296;2023-04-06T04:21:57;101216.56;;;8.15;85.27
64362;BME280;50685;53.346;-6.296;2023-04-06T04:24:51;101166.28;;;7.92;85.22
64362;BME280;50685;53.346;-6.296;2023-04-06T04:27:20;101149.50;;;7.85;84.88
64362;BME280;50685;53.346;-6.296;2023-04-06T04:29:46;101223.63;;;8.24;84.14
64362;BME280;50685;53.346;-6.296;2023-04-06T04:32:11;101147.75;;;7.81;83.98
64362;BME280;50685;53.346;-6.296;2023-04-06T04:34:37;101174.19;;;7.96;83.79
64362;BME280;50685;53.346;-6.296;2023-04-06T04:37:05;101228.91;;;8.19;83.77
64362;BME280;50685;53.346;-6.296;2023-04-06T04:39:38;101175.06;;;7.94;83.70
64362;BME280;50685;53.346;-6.296;2023-04-06T04:42:04;101160.97;;;7.85;83.45
64362;BME280;50685;53.346;-6.296;2023-04-06T04:44:33;101233.34;;;8.26;83.35
64362;BME280;50685;53.346;-6.296;2023-04-06T04:46:58;101208.59;;;8.04;83.65
64362;BME280;50685;53.346;-6.296;2023-04-06T04:49:24;101232.47;;;8.30;83.65
64362;BME280;50685;53.346;-6.296;2023-04-06T04:51:52;101234.19;;;8.25;83.79
64362;BME280;50685;53.346;-6.296;2023-04-06T04:54:21;101246.53;;;8.25;83.80
64362;BME280;50685;53.346;-6.296;2023-04-06T04:56:49;101169.75;;;7.78;83.82
64362;BME280;50685;53.346;-6.296;2023-04-06T04:59:38;101238.56;;;8.14;83.45
64362;BME280;50685;53.346;-6.296;2023-04-06T05:02:04;101249.13;;;8.18;83.86
64362;BME280;50685;53.346;-6.296;2023-04-06T05:04:30;101242.97;;;8.18;83.71
64362;BME280;50685;53.346;-6.296;2023-04-06T05:07:15;101173.22;;;7.74;83.63
64362;BME280;50685;53.346;-6.296;2023-04-06T05:09:43;101245.63;;;8.18;83.71
64362;BME280;50685;53.346;-6.296;2023-04-06T05:12:09;101220.91;;;8.00;84.00
64362;BME280;50685;53.346;-6.296;2023-04-06T05:14:38;101182.03;;;7.76;84.05
64362;BME280;50685;53.346;-6.296;2023-04-06T05:17:04;101254.38;;;8.11;84.20
64362;BME280;50685;53.346;-6.296;2023-04-06T05:19:32;101230.53;;;7.94;84.42
64362;BME280;50685;53.346;-6.296;2023-04-06T05:21:58;101217.31;;;7.89;84.17
64362;BME280;50685;53.346;-6.296;2023-04-06T05:24:29;101225.22;;;7.86;84.79
64362;BME280;50685;53.346;-6.296;2023-04-06T05:26:54;101228.75;;;7.91;84.83
64362;BME280;50685;53.346;-6.296;2023-04-06T05:29:20;101228.75;;;7.88;84.99
64362;BME280;50685;53.346;-6.296;2023-04-06T05:31:46;101255.25;;;8.10;85.02
64362;BME280;50685;53.346;-6.296;2023-04-06T05:34:18;101235.78;;;7.86;85.35
64362;BME280;50685;53.346;-6.296;2023-04-06T05:36:49;101267.59;;;8.08;85.50
64362;BME280;50685;53.346;-6.296;2023-04-06T05:39:14;101241.09;;;7.89;86.02
64362;BME280;50685;53.346;-6.296;2023-04-06T05:41:43;101275.50;;;8.01;86.59
64362;BME280;50685;53.346;-6.296;2023-04-06T05:44:11;101190.69;;;7.47;87.03
64362;BME280;50685;53.346;-6.296;2023-04-06T05:46:46;101214.47;;;7.55;87.93
64362;BME280;50685;53.346;-6.296;2023-04-06T05:49:12;101269.28;;;7.92;87.80
64362;BME280;50685;53.346;-6.296;2023-04-06T05:51:37;101262.19;;;7.86;88.07
64362;BME280;50685;53.346;-6.296;2023-04-06T05:54:06;101202.16;;;7.54;88.42
64362;BME280;50685;53.346;-6.296;2023-04-06T05:56:34;101242.72;;;7.71;88.81
64362;BME280;50685;53.346;-6.296;2023-04-06T05:59:02;101239.19;;;7.65;89.62
64362;BME280;50685;53.346;-6.296;2023-04-06T06:01:28;101249.75;;;7.63;89.90
64362;BME280;50685;53.346;-6.296;2023-04-06T06:03:54;101232.06;;;7.50;89.86
64362;BME280;50685;53.346;-6.296;2023-04-06T06:06:19;101285.94;;;7.84;90.45
64362;BME280;50685;53.346;-6.296;2023-04-06T06:08:45;101259.41;;;7.61;90.84
64362;BME280;50685;53.346;-6.296;2023-04-06T06:11:11;101237.34;;;7.53;90.85
64362;BME280;50685;53.346;-6.296;2023-04-06T06:13:37;101304.44;;;7.86;90.75
64362;BME280;50685;53.346;-6.296;2023-04-06T06:16:09;101249.66;;;7.54;91.06
64362;BME280;50685;53.346;-6.296;2023-04-06T06:18:41;101272.59;;;7.61;91.46
64362;BME280;50685;53.346;-6.296;2023-04-06T06:21:09;101298.22;;;7.78;92.05
64362;BME280;50685;53.346;-6.296;2023-04-06T06:23:36;101305.28;;;7.80;92.19
64362;BME280;50685;53.346;-6.296;2023-04-06T06:26:13;101300.00;;;7.80;92.57
64362;BME280;50685;53.346;-6.296;2023-04-06T06:28:38;101315.88;;;7.85;92.35
64362;BME280;50685;53.346;-6.296;2023-04-06T06:31:20;101269.03;;;7.58;92.55
64362;BME280;50685;53.346;-6.296;2023-04-06T06:33:58;101311.44;;;7.79;93.59
64362;BME280;50685;53.346;-6.296;2023-04-06T06:36:32;101281.28;;;7.48;93.60
64362;BME280;50685;53.346;-6.296;2023-04-06T06:39:01;101267.19;;;7.44;93.88
64362;BME280;50685;53.346;-6.296;2023-04-06T06:41:34;101283.00;;;7.43;94.14
64362;BME280;50685;53.346;-6.296;2023-04-06T06:44:14;101238.84;;;7.18;94.89
64362;BME280;50685;53.346;-6.296;2023-04-06T06:46:47;101326.25;;;7.57;95.22
64362;BME280;50685;53.346;-6.296;2023-04-06T06:49:13;101313.81;;;7.44;95.22
64362;BME280;50685;53.346;-6.296;2023-04-06T06:51:40;101273.25;;;7.32;94.81
64362;BME280;50685;53.346;-6.296;2023-04-06T06:54:08;101314.84;;;7.61;94.27
64362;BME280;50685;53.346;-6.296;2023-04-06T06:56:38;101318.38;;;7.63;93.74
64362;BME280;50685;53.346;-6.296;2023-04-06T06:59:10;101276.81;;;7.39;93.20
64362;BME280;50685;53.346;-6.296;2023-04-06T07:01:36;101333.34;;;7.70;92.81
64362;BME280;50685;53.346;-6.296;2023-04-06T07:04:04;101308.69;;;7.62;92.75
64362;BME280;50685;53.346;-6.296;2023-04-06T07:06:32;101306.03;;;7.64;92.96
64362;BME280;50685;53.346;-6.296;2023-04-06T07:09:06;101314.06;;;7.73;92.69
64362;BME280;50685;53.346;-6.296;2023-04-06T07:12:22;101330.94;;;7.95;92.16
64362;BME280;50685;53.346;-6.296;2023-04-06T07:14:47;101272.63;;;7.70;91.98
64362;BME280;50685;53.346;-6.296;2023-04-06T07:17:15;101296.56;;;7.92;91.80
64362;BME280;50685;53.346;-6.296;2023-04-06T07:20:19;101284.19;;;7.83;90.69
64362;BME280;50685;53.346;-6.296;2023-04-06T07:22:45;101291.28;;;7.94;91.00
64362;BME280;50685;53.346;-6.296;2023-04-06T07:28:36;101343.41;;;8.24;90.36
64362;BME280;50685;53.346;-6.296;2023-04-06T07:31:30;101309.78;;;7.98;89.78
64362;BME280;50685;53.346;-6.296;2023-04-06T07:33:55;101296.50;;;7.86;90.21
64362;BME280;50685;53.346;-6.296;2023-04-06T07:39:22;101330.84;;;7.86;90.81
64362;BME280;50685;53.346;-6.296;2023-04-06T07:41:55;101305.22;;;7.74;91.09
64362;BME280;50685;53.346;-6.296;2023-04-06T07:44:21;101329.97;;;7.88;91.34
64362;BME280;50685;53.346;-6.296;2023-04-06T07:46:49;101366.25;;;8.16;91.29
64362;BME280;50685;53.346;-6.296;2023-04-06T07:49:18;101359.22;;;8.16;91.29
64362;BME280;50685;53.346;-6.296;2023-04-06T07:51:43;101307.06;;;7.84;91.56
64362;BME280;50685;53.346;-6.296;2023-04-06T07:54:12;101373.41;;;8.35;90.87
64362;BME280;50685;53.346;-6.296;2023-04-06T07:56:38;101300.19;;;8.13;90.51
64362;BME280;50685;53.346;-6.296;2023-04-06T07:59:11;101306.41;;;8.24;89.92
64362;BME280;50685;53.346;-6.296;2023-04-06T08:01:43;101335.66;;;8.54;90.00
64362;BME280;50685;53.346;-6.296;2023-04-06T08:04:09;101348.97;;;8.72;89.11
64362;BME280;50685;53.346;-6.296;2023-04-06T08:06:38;101313.63;;;8.48;88.13
64362;BME280;50685;53.346;-6.296;2023-04-06T08:09:04;101372.81;;;8.88;88.85
64362;BME280;50685;53.346;-6.296;2023-04-06T08:11:29;101303.00;;;8.45;88.64
64362;BME280;50685;53.346;-6.296;2023-04-06T08:13:56;101383.41;;;8.86;89.02
64362;BME280;50685;53.346;-6.296;2023-04-06T08:16:22;101355.13;;;8.70;88.35
64362;BME280;50685;53.346;-6.296;2023-04-06T08:19:01;101336.53;;;8.52;88.90
64362;BME280;50685;53.346;-6.296;2023-04-06T08:21:34;101383.38;;;8.84;87.97
64362;BME280;50685;53.346;-6.296;2023-04-06T08:24:05;101384.25;;;8.82;88.15
64362;BME280;50685;53.346;-6.296;2023-04-06T08:26:33;101354.22;;;8.67;87.78
64362;BME280;50685;53.346;-6.296;2023-04-06T08:28:59;101325.03;;;8.46;87.65
64362;BME280;50685;53.346;-6.296;2023-04-06T08:31:33;101401.06;;;8.90;87.28
64362;BME280;50685;53.346;-6.296;2023-04-06T08:34:04;101337.34;;;8.44;87.03
64362;BME280;50685;53.346;-6.296;2023-04-06T08:36:41;101378.97;;;8.79;87.35
64362;BME280;50685;53.346;-6.296;2023-04-06T08:39:29;101339.25;;;8.60;86.38
64362;BME280;50685;53.346;-6.296;2023-04-06T08:41:58;101330.44;;;8.64;86.33
64362;BME280;50685;53.346;-6.296;2023-04-06T08:44:42;101409.94;;;9.22;86.00
64362;BME280;50685;53.346;-6.296;2023-04-06T08:47:26;101326.97;;;8.93;84.92
64362;BME280;50685;53.346;-6.296;2023-04-06T08:49:52;101343.75;;;9.02;83.39
64362;BME280;50685;53.346;-6.296;2023-04-06T08:52:19;101345.53;;;9.10;83.83
64362;BME280;50685;53.346;-6.296;2023-04-06T08:54:51;101347.31;;;9.10;82.60
64362;BME280;50685;53.346;-6.296;2023-04-06T08:57:17;101411.81;;;9.64;82.53
64362;BME280;50685;53.346;-6.296;2023-04-06T08:59:55;101365.91;;;9.45;81.55
64362;BME280;50685;53.346;-6.296;2023-04-06T09:09:29;101399.44;;;9.99;78.38
64362;BME280;50685;53.346;-6.296;2023-04-06T09:12:05;101350.91;;;9.74;77.66
64362;BME280;50685;53.346;-6.296;2023-04-06T09:22:18;101380.91;;;9.84;76.65
64362;BME280;50685;53.346;-6.296;2023-04-06T09:25:22;101398.59;;;9.95;76.28
64362;BME280;50685;53.346;-6.296;2023-04-06T09:35:05;101462.19;;;10.40;74.50
64362;BME280;50685;53.346;-6.296;2023-04-06T09:38:35;101410.03;;;10.15;73.81
64362;BME280;50685;53.346;-6.296;2023-04-06T09:45:17;101417.09;;;10.34;72.86
64362;BME280;50685;53.346;-6.296;2023-04-06T09:48:09;101472.75;;;10.60;72.31
64362;BME280;50685;53.346;-6.296;2023-04-06T09:51:03;101430.34;;;10.12;72.33
64362;BME280;50685;53.346;-6.296;2023-04-06T10:14:22;101473.72;;;13.05;58.08
64362;BME280;50685;53.346;-6.296;2023-04-06T10:38:04;101434.63;;;12.31;54.98
64362;BME280;50685;53.346;-6.296;2023-04-06T10:40:30;101455.19;;;12.10;56.35
64362;BME280;50685;53.346;-6.296;2023-04-06T10:43:19;101496.81;;;12.13;56.30
64362;BME280;50685;53.346;-6.296;2023-04-06T10:45:55;101492.53;;;11.92;56.44
64362;BME280;50685;53.346;-6.296;2023-04-06T10:48:56;101510.25;;;11.89;56.61
64362;BME280;50685;53.346;-6.296;2023-04-06T10:52:16;101513.03;;;11.71;57.52
64362;BME280;50685;53.346;-6.296;2023-04-06T10:55:24;101521.94;;;11.57;57.80
64362;BME280;50685;53.346;-6.296;2023-04-06T11:01:49;101459.25;;;11.30;57.75
64362;BME280;50685;53.346;-6.296;2023-04-06T11:25:09;101467.75;;;11.86;54.24
64362;BME280;50685;53.346;-6.296;2023-04-06T12:00:27;101497.50;;;12.38;50.66
64362;BME280;50685;53.346;-6.296;2023-04-06T12:03:21;101546.84;;;12.75;50.40
64362;BME280;50685;53.346;-6.296;2023-04-06T12:19:01;101482.56;;;13.09;51.18
64362;BME280;50685;53.346;-6.296;2023-04-06T12:21:34;101497.66;;;13.11;48.58
64362;BME280;50685;53.346;-6.296;2023-04-06T12:24:33;101493.97;;;13.18;49.59
64362;BME280;50685;53.346;-6.296;2023-04-06T12:27:19;101524.63;;;13.55;49.43
64362;BME280;50685;53.346;-6.296;2023-04-06T12:29:45;101483.06;;;13.42;48.83
64362;BME280;50685;53.346;-6.296;2023-04-06T12:32:16;101541.13;;;13.84;49.59
64362;BME280;50685;53.346;-6.296;2023-04-06T12:34:45;101514.91;;;13.53;49.55
64362;BME280;50685;53.346;-6.296;2023-04-06T12:37:30;101532.69;;;13.52;49.95
64362;BME280;50685;53.346;-6.296;2023-04-06T12:39:56;101526.44;;;13.55;49.86
64362;BME280;50685;53.346;-6.296;2023-04-06T12:42:24;101519.69;;;13.91;49.37
64362;BME280;50685;53.346;-6.296;2023-04-06T12:44:55;101495.25;;;14.18;45.95
64362;BME280;50685;53.346;-6.296;2023-04-06T12:47:28;101507.25;;;14.46;44.83
64362;BME280;50685;53.346;-6.296;2023-04-06T12:49:57;101528.53;;;14.50;44.35
64362;BME280;50685;53.346;-6.296;2023-04-06T12:52:25;101548.16;;;14.47;44.51
64362;BME280;50685;53.346;-6.296;2023-04-06T12:54:58;101503.34;;;14.14;46.22
64362;BME280;50685;53.346;-6.296;2023-04-06T12:57:26;101553.38;;;14.53;44.25
64362;BME280;50685;53.346;-6.296;2023-04-06T13:00:02;101553.84;;;14.80;45.28
64362;BME280;50685;53.346;-6.296;2023-04-06T13:02:32;101522.06;;;14.63;46.00
64362;BME280;50685;53.346;-6.296;2023-04-06T13:05:07;101532.75;;;14.63;42.83
64362;BME280;50685;53.346;-6.296;2023-04-06T13:07:44;101523.44;;;14.36;42.73
64362;BME280;50685;53.346;-6.296;2023-04-06T13:10:20;101506.63;;;14.30;43.16
64362;BME280;50685;53.346;-6.296;2023-04-06T13:12:47;101516.94;;;13.96;43.26
64362;BME280;50685;53.346;-6.296;2023-04-06T13:15:13;101522.41;;;14.44;40.65
64362;BME280;50685;53.346;-6.296;2023-04-06T13:17:38;101533.31;;;15.29;40.57
64362;BME280;50685;53.346;-6.296;2023-04-06T13:20:05;101556.34;;;16.18;38.33
64362;BME280;50685;53.346;-6.296;2023-04-06T13:29:13;101512.78;;;17.45;35.69
64362;BME280;50685;53.346;-6.296;2023-04-06T13:31:38;101565.56;;;18.31;36.72
64362;BME280;50685;53.346;-6.296;2023-04-06T13:34:04;101518.75;;;18.13;35.21
64362;BME280;50685;53.346;-6.296;2023-04-06T13:39:00;101570.63;;;17.54;36.11
64362;BME280;50685;53.346;-6.296;2023-04-06T13:41:25;101532.38;;;17.17;37.28
64362;BME280;50685;53.346;-6.296;2023-04-06T13:43:52;101514.22;;;16.61;36.48
64362;BME280;50685;53.346;-6.296;2023-04-06T13:46:32;101522.69;;;16.44;36.63
64362;BME280;50685;53.346;-6.296;2023-04-06T13:48:58;101575.69;;;16.29;37.71
64362;BME280;50685;53.346;-6.296;2023-04-06T13:51:24;101549.06;;;15.85;38.54
64362;BME280;50685;53.346;-6.296;2023-04-06T13:53:49;101560.81;;;15.77;39.37
64362;BME280;50685;53.346;-6.296;2023-04-06T13:56:17;101536.28;;;15.57;40.07
64362;BME280;50685;53.346;-6.296;2023-04-06T13:58:43;101537.38;;;15.47;39.74
64362;BME280;50685;53.346;-6.296;2023-04-06T14:01:10;101582.31;;;15.70;40.29
64362;BME280;50685;53.346;-6.296;2023-04-06T14:03:41;101539.16;;;15.89;40.16
64362;BME280;50685;53.346;-6.296;2023-04-06T14:06:13;101531.53;;;16.47;38.88
64362;BME280;50685;53.346;-6.296;2023-04-06T14:08:39;101551.66;;;17.30;38.31
64362;BME280;50685;53.346;-6.296;2023-04-06T14:11:05;101532.09;;;17.86;37.27
64362;BME280;50685;53.346;-6.296;2023-04-06T14:13:33;101534.59;;;18.48;36.25
64362;BME280;50685;53.346;-6.296;2023-04-06T14:18:32;101529.69;;;19.11;32.66
64362;BME280;50685;53.346;-6.296;2023-04-06T14:21:00;101523.59;;;19.31;33.41
64362;BME280;50685;53.346;-6.296;2023-04-06T14:23:28;101543.41;;;19.29;33.85
64362;BME280;50685;53.346;-6.296;2023-04-06T14:26:07;101521.28;;;18.97;32.53
64362;BME280;50685;53.346;-6.296;2023-04-06T14:28:34;101526.06;;;19.12;33.04
64362;BME280;50685;53.346;-6.296;2023-04-06T14:31:19;101518.47;;;18.74;32.71
64362;BME280;50685;53.346;-6.296;2023-04-06T14:33:48;101528.78;;;18.87;33.96
64362;BME280;50685;53.346;-6.296;2023-04-06T14:36:17;101547.56;;;18.61;33.14
64362;BME280;50685;53.346;-6.296;2023-04-06T14:38:47;101552.94;;;18.35;32.98
64362;BME280;50685;53.346;-6.296;2023-04-06T14:41:22;101532.47;;;18.30;32.98
64362;BME280;50685;53.346;-6.296;2023-04-06T14:43:48;101523.72;;;18.25;32.97
64362;BME280;50685;53.346;-6.296;2023-04-06T14:46:14;101587.31;;;18.23;34.13
64362;BME280;50685;53.346;-6.296;2023-04-06T14:49:06;101561.09;;;18.32;32.91
64362;BME280;50685;53.346;-6.296;2023-04-06T15:01:57;101532.13;;;18.67;33.34
64362;BME280;50685;53.346;-6.296;2023-04-06T15:04:49;101506.16;;;18.67;32.69
64362;BME280;50685;53.346;-6.296;2023-04-06T15:08:04;101553.22;;;18.79;33.12
64362;BME280;50685;53.346;-6.296;2023-04-06T15:11:40;101582.28;;;18.68;32.64
64362;BME280;50685;53.346;-6.296;2023-04-06T15:14:15;101596.59;;;18.13;32.91
64362;BME280;50685;53.346;-6.296;2023-04-06T15:28:29;101538.41;;;15.41;37.56
64362;BME280;50685;53.346;-6.296;2023-04-06T15:38:05;101553.66;;;15.35;39.48
64362;BME280;50685;53.346;-6.296;2023-04-06T15:40:55;101613.81;;;16.01;40.15
64362;BME280;50685;53.346;-6.296;2023-04-06T15:44:10;101563.59;;;16.13;39.75
64362;BME280;50685;53.346;-6.296;2023-04-06T15:53:39;101560.66;;;17.27;38.04
64362;BME280;50685;53.346;-6.296;2023-04-06T15:56:25;101589.13;;;17.33;35.78
64362;BME280;50685;53.346;-6.296;2023-04-06T16:02:06;101554.81;;;16.06;37.42
64362;BME280;50685;53.346;-6.296;2023-04-06T16:04:34;101561.31;;;15.96;37.69
64362;BME280;50685;53.346;-6.296;2023-04-06T16:15:30;101589.59;;;15.20;37.18
64362;BME280;50685;53.346;-6.296;2023-04-06T16:18:19;101584.31;;;15.17;37.56
64362;BME280;50685;53.346;-6.296;2023-04-06T16:24:59;101634.44;;;15.51;38.24
64362;BME280;50685;53.346;-6.296;2023-04-06T16:28:11;101596.03;;;15.09;38.15
64362;BME280;50685;53.346;-6.296;2023-04-06T16:31:05;101621.84;;;15.09;39.38
64362;BME280;50685;53.346;-6.296;2023-04-06T16:44:38;101633.78;;;14.89;41.22
64362;BME280;50685;53.346;-6.296;2023-04-06T16:53:18;101621.22;;;14.40;42.16
64362;BME280;50685;53.346;-6.296;2023-04-06T16:55:47;101617.03;;;14.23;42.34
64362;BME280;50685;53.346;-6.296;2023-04-06T17:01:54;101605.69;;;14.06;42.24
64362;BME280;50685;53.346;-6.296;2023-04-06T17:04:38;101666.44;;;14.51;42.39